createdAt,value
2022-11-05T00:00:18.999Z,12.47
2022-11-05T00:03:05.392Z,12.20
2022-11-05T00:05:51.904Z,11.77
2022-11-05T00:08:38.420Z,12.20
2022-11-05T00:11:12.593Z,11.67
2022-11-05T00:14:01.554Z,11.73
2022-11-05T00:16:45.975Z,11.50
2022-11-05T00:19:15.253Z,11.30
2022-11-05T00:22:01.622Z,12.33
2022-11-05T00:24:48.381Z,11.73
2022-11-05T00:27:18.822Z,11.73
2022-11-05T00:29:48.000Z,11.73
2022-11-05T00:32:17.377Z,12.23
2022-11-05T00:34:47.143Z,12.73
2022-11-05T00:37:16.255Z,11.97
2022-11-05T00:39:45.336Z,11.43
2022-11-05T00:42:31.792Z,11.20
2022-11-05T00:45:02.681Z,12.13
2022-11-05T00:47:51.563Z,12.70
2022-11-05T00:50:21.696Z,12.47
2022-11-05T00:52:57.450Z,11.33
2022-11-05T00:55:35.093Z,11.70
2022-11-05T00:58:05.690Z,12.63
2022-11-05T01:00:38.433Z,12.53
2022-11-05T01:03:09.721Z,12.17
2022-11-05T01:05:41.933Z,11.30
2022-11-05T01:08:11.893Z,12.13
2022-11-05T01:10:44.801Z,12.90
2022-11-05T01:13:15.264Z,12.00
2022-11-05T01:15:47.247Z,12.40
2022-11-05T01:18:16.466Z,11.70
2022-11-05T01:20:46.138Z,11.00
2022-11-05T01:23:15.885Z,12.23
2022-11-05T01:25:46.103Z,11.33
2022-11-05T01:28:15.359Z,11.93
2022-11-05T01:30:46.070Z,11.93
2022-11-05T01:33:15.335Z,12.30
2022-11-05T01:35:45.495Z,11.80
2022-11-05T01:38:14.542Z,12.20
2022-11-05T01:40:44.952Z,12.63
2022-11-05T01:43:18.456Z,11.77
2022-11-05T01:45:51.821Z,11.37
2022-11-05T01:48:24.532Z,12.00
2022-11-05T01:50:58.098Z,11.23
2022-11-05T01:53:32.090Z,11.57
2022-11-05T01:56:10.695Z,12.10
2022-11-05T01:58:43.993Z,12.13
2022-11-05T02:01:14.903Z,11.87
2022-11-05T02:03:45.622Z,12.77
2022-11-05T02:06:16.910Z,12.23
2022-11-05T02:08:56.534Z,11.53
2022-11-05T02:11:26.042Z,12.60
2022-11-05T02:13:55.265Z,12.10
2022-11-05T02:16:41.404Z,12.80
2022-11-05T02:19:44.711Z,12.40
2022-11-05T02:23:04.808Z,12.80
2022-11-05T02:26:05.341Z,13.33
2022-11-05T02:28:53.916Z,12.57
2022-11-05T02:31:31.381Z,12.20
2022-11-05T02:34:09.035Z,12.20
2022-11-05T02:36:48.082Z,13.50
2022-11-05T02:39:30.309Z,12.93
2022-11-05T02:42:07.977Z,12.40
2022-11-05T02:44:44.781Z,12.67
2022-11-05T02:47:25.033Z,12.67
2022-11-05T02:50:05.511Z,13.10
2022-11-05T02:52:41.890Z,12.07
2022-11-05T02:55:18.015Z,12.37
2022-11-05T02:57:48.972Z,12.03
2022-11-05T03:00:45.702Z,13.00
2022-11-05T03:03:24.015Z,12.70
2022-11-05T03:06:17.713Z,13.33
2022-11-05T03:09:03.394Z,12.70
2022-11-05T03:11:38.856Z,12.47
2022-11-05T03:14:14.413Z,13.73
2022-11-05T03:16:45.896Z,12.93
2022-11-05T03:19:21.695Z,13.50
2022-11-05T03:21:56.649Z,12.27
2022-11-05T03:24:29.402Z,13.33
2022-11-05T03:27:02.190Z,12.47
2022-11-05T03:29:35.063Z,12.93
2022-11-05T03:32:06.573Z,12.77
2022-11-05T03:34:41.653Z,12.97
2022-11-05T03:37:12.580Z,13.30
2022-11-05T03:39:45.678Z,13.10
2022-11-05T03:42:18.016Z,13.23
2022-11-05T03:44:52.143Z,12.20
2022-11-05T03:47:25.319Z,13.43
2022-11-05T03:50:01.026Z,13.20
2022-11-05T03:52:35.297Z,14.00
2022-11-05T03:55:04.932Z,14.50
2022-11-05T03:57:39.343Z,12.70
2022-11-05T04:00:10.974Z,13.63
2022-11-05T04:02:43.735Z,13.40
2022-11-05T04:05:14.525Z,13.50
2022-11-05T04:08:01.825Z,13.73
2022-11-05T04:10:54.047Z,13.13
2022-11-05T04:13:26.236Z,12.93
2022-11-05T04:16:14.330Z,13.33
2022-11-05T04:18:43.932Z,14.07
2022-11-05T04:21:28.335Z,13.07
2022-11-05T04:24:09.738Z,13.80
2022-11-05T04:26:40.279Z,13.97
2022-11-05T04:29:26.807Z,14.20
2022-11-05T04:31:56.299Z,13.20
2022-11-05T04:34:25.689Z,13.90
2022-11-05T04:36:59.366Z,14.77
2022-11-05T04:39:28.485Z,13.70
2022-11-05T04:41:57.699Z,14.53
2022-11-05T04:44:26.892Z,14.20
2022-11-05T04:46:56.156Z,14.23
2022-11-05T04:49:25.295Z,13.93
2022-11-05T04:51:54.599Z,14.03
2022-11-05T04:54:25.173Z,14.90
2022-11-05T04:56:54.379Z,15.00
2022-11-05T04:59:23.665Z,15.13
2022-11-05T05:01:53.891Z,14.87
2022-11-05T05:04:22.974Z,15.43
2022-11-05T05:06:52.155Z,16.07
2022-11-05T05:09:21.457Z,15.07
2022-11-05T05:11:52.019Z,14.70
2022-11-05T05:14:21.213Z,15.03
2022-11-05T05:16:50.325Z,15.93
2022-11-05T05:19:20.781Z,14.80
2022-11-05T05:21:48.974Z,14.57
2022-11-05T05:24:19.785Z,16.00
2022-11-05T05:26:50.726Z,15.40
2022-11-05T05:29:21.295Z,16.47
2022-11-05T05:31:50.485Z,16.53
2022-11-05T05:34:19.686Z,16.27
2022-11-05T05:36:48.894Z,15.57
2022-11-05T05:39:18.057Z,15.90
2022-11-05T05:41:47.204Z,16.50
2022-11-05T05:44:16.339Z,15.73
2022-11-05T05:46:46.845Z,16.60
2022-11-05T05:49:16.422Z,16.77
2022-11-05T05:51:45.602Z,16.40
2022-11-05T05:54:14.948Z,16.37
2022-11-05T05:56:45.585Z,17.17
2022-11-05T05:59:15.102Z,17.97
2022-11-05T06:01:45.828Z,17.80
2022-11-05T06:04:15.139Z,17.03
2022-11-05T06:06:47.035Z,16.67
2022-11-05T06:09:16.614Z,16.77
2022-11-05T06:11:46.099Z,16.97
2022-11-05T06:14:15.566Z,17.37
2022-11-05T06:16:46.015Z,17.10
2022-11-05T06:19:15.286Z,17.20
2022-11-05T06:21:44.416Z,17.07
2022-11-05T06:24:13.539Z,15.67
2022-11-05T06:26:43.815Z,16.83
2022-11-05T06:29:13.151Z,17.50
2022-11-05T06:31:42.845Z,18.33
2022-11-05T06:34:13.668Z,17.30
2022-11-05T06:36:42.967Z,17.83
2022-11-05T06:39:12.652Z,17.43
2022-11-05T06:42:17.096Z,17.47
2022-11-05T06:44:31.028Z,16.70
2022-11-05T06:47:00.593Z,18.87
2022-11-05T06:49:31.034Z,17.60
2022-11-05T06:52:00.090Z,17.57
2022-11-05T06:54:29.283Z,17.00
2022-11-05T06:56:58.395Z,16.97
2022-11-05T06:59:27.483Z,17.37
2022-11-05T07:01:56.700Z,17.37
2022-11-05T07:04:26.243Z,17.13
2022-11-05T07:06:56.843Z,17.50
2022-11-05T07:09:26.584Z,18.27
2022-11-05T07:11:56.002Z,17.20
2022-11-05T07:14:25.330Z,17.60
2022-11-05T07:16:54.528Z,17.40
2022-11-05T07:19:24.274Z,17.67
2022-11-05T07:21:53.544Z,17.33
2022-11-05T07:24:24.173Z,17.27
2022-11-05T07:26:53.648Z,16.50
2022-11-05T07:29:22.917Z,17.83
2022-11-05T07:31:52.091Z,17.73
2022-11-05T07:34:21.410Z,17.27
2022-11-05T07:36:50.669Z,17.80
2022-11-05T07:39:20.007Z,17.03
2022-11-05T07:41:51.184Z,16.63
2022-11-05T07:44:20.719Z,17.83
2022-11-05T07:46:50.048Z,18.60
2022-11-05T07:49:20.065Z,17.47
2022-11-05T07:51:49.247Z,17.57
2022-11-05T07:54:18.445Z,16.23
2022-11-05T07:56:50.247Z,17.57
2022-11-05T07:59:20.097Z,17.30
2022-11-05T08:01:49.476Z,16.20
2022-11-05T08:04:19.142Z,16.17
2022-11-05T08:06:48.403Z,17.87
2022-11-05T08:09:17.668Z,16.43
2022-11-05T08:11:47.035Z,16.53
2022-11-05T08:14:33.535Z,17.30
2022-11-05T08:17:02.954Z,17.03
2022-11-05T08:19:32.176Z,16.40
2022-11-05T08:22:01.364Z,16.83
2022-11-05T08:24:30.645Z,17.00
2022-11-05T08:26:59.955Z,17.37
2022-11-05T08:29:30.520Z,17.23
2022-11-05T08:31:59.734Z,18.03
2022-11-05T08:34:28.929Z,17.73
2022-11-05T08:36:58.103Z,18.53
2022-11-05T08:39:27.633Z,17.53
2022-11-05T08:41:56.855Z,17.57
2022-11-05T08:44:26.133Z,18.67
2022-11-05T08:46:57.058Z,18.57
2022-11-05T08:49:26.437Z,18.07
2022-11-05T08:51:56.211Z,18.33
2022-11-05T08:54:25.523Z,17.80
2022-11-05T08:56:55.073Z,18.23
2022-11-05T08:59:24.235Z,18.80
2022-11-05T09:01:53.679Z,19.53
2022-11-05T09:04:24.623Z,19.67
2022-11-05T09:06:53.971Z,18.83
2022-11-05T09:09:28.482Z,18.47
2022-11-05T09:12:11.859Z,18.60
2022-11-05T09:14:41.954Z,20.10
2022-11-05T09:17:18.505Z,18.83
2022-11-05T09:19:49.925Z,18.70
2022-11-05T09:22:19.723Z,18.77
2022-11-05T09:24:49.104Z,18.80
2022-11-05T09:27:20.073Z,19.27
2022-11-05T09:29:49.913Z,19.63
2022-11-05T09:32:19.745Z,20.60
2022-11-05T09:34:50.404Z,20.13
2022-11-05T09:37:19.713Z,20.00
2022-11-05T09:39:49.944Z,19.63
2022-11-05T09:42:21.175Z,20.10
2022-11-05T09:44:54.142Z,19.77
2022-11-05T09:47:29.212Z,20.13
2022-11-05T09:50:01.833Z,20.53
2022-11-05T09:52:33.348Z,20.83
2022-11-05T09:55:04.198Z,20.33
2022-11-05T09:57:47.462Z,20.43
2022-11-05T10:00:18.013Z,19.53
2022-11-05T10:02:50.891Z,21.23
2022-11-05T10:05:23.742Z,20.43
2022-11-05T10:07:57.323Z,19.83
2022-11-05T10:10:40.362Z,21.17
2022-11-05T10:13:19.532Z,19.80
2022-11-05T10:15:57.012Z,21.17
2022-11-05T10:18:29.672Z,20.30
2022-11-05T10:21:00.882Z,21.50
2022-11-05T10:23:30.872Z,21.13
2022-11-05T10:26:14.191Z,20.00
2022-11-05T10:28:43.554Z,21.07
2022-11-05T10:31:16.704Z,20.80
2022-11-05T10:33:47.903Z,27.77
2022-11-05T10:36:26.838Z,21.10
2022-11-05T10:39:00.852Z,22.33
2022-11-05T10:41:45.924Z,21.23
2022-11-05T10:44:28.573Z,20.97
2022-11-05T10:47:18.493Z,20.20
2022-11-05T10:49:55.656Z,21.20
2022-11-05T10:52:29.753Z,20.43
2022-11-05T10:55:02.406Z,21.47
2022-11-05T10:57:37.353Z,20.40
2022-11-05T11:00:28.581Z,21.97
2022-11-05T11:03:00.788Z,22.23
2022-11-05T11:05:33.112Z,20.73
2022-11-05T11:08:08.352Z,21.57
2022-11-05T11:10:43.052Z,22.93
2022-11-05T11:13:21.920Z,21.93
2022-11-05T11:15:52.106Z,22.17
2022-11-05T11:18:37.326Z,23.60
2022-11-05T11:21:15.267Z,23.07
2022-11-05T11:23:56.573Z,22.07
2022-11-05T11:26:27.184Z,23.97
2022-11-05T11:29:00.806Z,23.83
2022-11-05T11:31:33.273Z,22.93
2022-11-05T11:34:05.910Z,23.03
2022-11-05T11:36:37.934Z,22.57
2022-11-05T11:39:09.683Z,23.23
2022-11-05T11:41:42.963Z,24.57
2022-11-05T11:44:16.282Z,23.70
2022-11-05T11:46:49.775Z,23.30
2022-11-05T11:49:33.954Z,23.83
2022-11-05T11:52:06.233Z,23.17
2022-11-05T11:54:36.833Z,23.07
2022-11-05T11:57:25.392Z,23.47
2022-11-05T12:00:08.418Z,24.10
2022-11-05T12:03:02.303Z,23.57
2022-11-05T12:05:43.713Z,24.10
2022-11-05T12:08:27.507Z,24.13
2022-11-05T12:11:05.681Z,23.97
2022-11-05T12:13:56.136Z,25.33
2022-11-05T12:16:47.658Z,25.33
2022-11-05T12:19:27.063Z,24.43
2022-11-05T12:22:03.703Z,24.90
2022-11-05T12:24:56.614Z,24.30
2022-11-05T12:27:44.474Z,24.90
2022-11-05T12:30:16.833Z,23.93
2022-11-05T12:33:18.645Z,24.30
2022-11-05T12:36:00.593Z,25.47
2022-11-05T12:38:50.322Z,24.03
2022-11-05T12:41:28.054Z,26.27
2022-11-05T12:44:19.745Z,25.13
2022-11-05T12:46:59.353Z,26.50
2022-11-05T12:50:03.586Z,27.67
2022-11-05T12:52:50.741Z,27.90
2022-11-05T12:55:22.733Z,28.57
2022-11-05T12:57:55.653Z,27.97
2022-11-05T13:00:28.522Z,27.70
2022-11-05T13:03:06.259Z,28.93
2022-11-05T13:05:38.262Z,29.33
2022-11-05T13:08:10.913Z,28.80
2022-11-05T13:10:46.123Z,29.33
2022-11-05T13:13:20.473Z,29.23
2022-11-05T13:15:55.725Z,29.40
2022-11-05T13:18:29.652Z,30.20
2022-11-05T13:21:03.562Z,28.30
2022-11-05T13:23:39.357Z,28.67
2022-11-05T13:26:19.486Z,30.50
2022-11-05T13:28:54.598Z,29.87
2022-11-05T13:31:31.793Z,30.57
2022-11-05T13:34:06.062Z,29.97
2022-11-05T13:37:07.230Z,26.77
2022-11-05T13:39:38.693Z,27.10
2022-11-05T13:42:57.535Z,28.00
2022-11-05T13:45:50.702Z,28.50
2022-11-05T13:48:51.437Z,27.90
2022-11-05T13:51:48.355Z,26.60
2022-11-05T13:54:57.864Z,26.83
2022-11-05T13:57:56.624Z,26.63
2022-11-05T14:00:28.765Z,26.43
2022-11-05T14:03:03.433Z,26.60
2022-11-05T14:05:38.312Z,26.47
2022-11-05T14:08:12.371Z,27.80
2022-11-05T14:10:45.058Z,26.80
2022-11-05T14:13:24.837Z,27.33
2022-11-05T14:16:03.523Z,26.67
2022-11-05T14:18:45.405Z,27.40
2022-11-05T14:21:48.415Z,25.83
2022-11-05T14:24:30.537Z,25.87
2022-11-05T14:27:29.644Z,26.20
2022-11-05T14:29:59.337Z,26.77
2022-11-05T14:32:43.921Z,26.03
2022-11-05T14:35:37.568Z,25.47
2022-11-05T14:38:20.586Z,26.47
2022-11-05T14:40:51.235Z,25.17
2022-11-05T14:43:24.127Z,25.17
2022-11-05T14:45:59.091Z,25.33
2022-11-05T14:48:38.178Z,25.10
2022-11-05T14:51:26.635Z,26.83
2022-11-05T14:54:05.201Z,25.27
2022-11-05T14:56:45.336Z,26.03
2022-11-05T14:59:37.206Z,25.80
2022-11-05T15:02:13.263Z,25.50
2022-11-05T15:04:46.018Z,24.37
2022-11-05T15:07:34.306Z,25.20
2022-11-05T15:10:11.040Z,24.37
2022-11-05T15:12:46.107Z,24.80
2022-11-05T15:15:23.225Z,25.23
2022-11-05T15:18:02.397Z,23.43
2022-11-05T15:20:40.121Z,24.47
2022-11-05T15:23:16.104Z,24.33
2022-11-05T15:25:53.769Z,23.20
2022-11-05T15:28:32.802Z,24.00
2022-11-05T15:31:04.767Z,24.33
2022-11-05T15:33:34.798Z,24.60
2022-11-05T15:36:12.002Z,23.87
2022-11-05T15:39:01.967Z,23.67
2022-11-05T15:41:34.880Z,23.03
2022-11-05T15:44:04.187Z,23.70
2022-11-05T15:46:33.771Z,24.47
2022-11-05T15:49:09.739Z,24.70
2022-11-05T15:51:39.063Z,24.13
2022-11-05T15:54:36.521Z,24.27
2022-11-05T15:57:16.650Z,24.50
2022-11-05T15:59:48.938Z,22.87
2022-11-05T16:02:27.279Z,24.77
2022-11-05T16:04:58.292Z,24.23
2022-11-05T16:07:28.730Z,23.87
2022-11-05T16:09:59.975Z,23.27
2022-11-05T16:12:36.107Z,24.33
2022-11-05T16:15:22.443Z,23.43
2022-11-05T16:17:55.074Z,23.77
2022-11-05T16:20:32.409Z,23.37
2022-11-05T16:23:03.878Z,23.53
2022-11-05T16:25:41.214Z,24.67
2022-11-05T16:28:23.417Z,22.80
2022-11-05T16:30:57.347Z,23.43
2022-11-05T16:33:28.496Z,24.20
2022-11-05T16:35:57.962Z,24.47
2022-11-05T16:38:27.168Z,23.53
2022-11-05T16:41:00.561Z,24.83
2022-11-05T16:43:31.782Z,24.47
2022-11-05T16:46:02.838Z,26.03
2022-11-05T16:48:32.135Z,24.60
2022-11-05T16:51:01.721Z,22.67
2022-11-05T16:53:32.492Z,25.53
2022-11-05T16:56:03.713Z,23.87
2022-11-05T16:58:34.497Z,24.73
2022-11-05T17:01:06.348Z,25.07
2022-11-05T17:03:36.507Z,23.43
2022-11-05T17:06:06.216Z,24.60
2022-11-05T17:08:36.615Z,24.37
2022-11-05T17:11:06.530Z,23.57
2022-11-05T17:13:37.400Z,24.07
2022-11-05T17:16:07.533Z,24.07
2022-11-05T17:18:39.913Z,24.33
2022-11-05T17:21:10.116Z,24.07
2022-11-05T17:23:39.926Z,24.37
2022-11-05T17:26:12.072Z,23.57
2022-11-05T17:28:43.209Z,23.63
2022-11-05T17:31:15.319Z,24.10
2022-11-05T17:33:45.180Z,22.93
2022-11-05T17:36:19.526Z,23.33
2022-11-05T17:38:49.116Z,23.60
2022-11-05T17:41:22.922Z,24.50
2022-11-05T17:43:58.014Z,23.83
2022-11-05T17:46:27.709Z,23.07
2022-11-05T17:48:57.271Z,23.13
2022-11-05T17:51:26.922Z,21.60
2022-11-05T17:53:56.670Z,22.77
2022-11-05T17:56:35.059Z,21.97
2022-11-05T17:59:07.112Z,22.93
2022-11-05T18:01:41.977Z,22.33
2022-11-05T18:04:12.182Z,21.83
2022-11-05T18:06:42.549Z,21.70
2022-11-05T18:09:13.356Z,21.03
2022-11-05T18:11:43.364Z,20.73
2022-11-05T18:14:14.445Z,21.10
2022-11-05T18:16:44.103Z,21.27
2022-11-05T18:19:13.912Z,20.80
2022-11-05T18:21:43.969Z,20.90
2022-11-05T18:24:14.997Z,20.67
2022-11-05T18:26:44.799Z,22.13
2022-11-05T18:29:16.246Z,21.33
2022-11-05T18:31:45.951Z,22.13
2022-11-05T18:34:16.697Z,23.10
2022-11-05T18:36:56.054Z,20.60
2022-11-05T18:39:25.826Z,20.70
2022-11-05T18:41:55.271Z,20.23
2022-11-05T18:44:26.645Z,20.67
2022-11-05T18:46:58.409Z,20.00
2022-11-05T18:49:29.167Z,20.40
2022-11-05T18:51:58.819Z,19.87
2022-11-05T18:54:29.527Z,18.20
2022-11-05T18:56:59.335Z,17.23
2022-11-05T18:59:37.750Z,17.50
2022-11-05T19:02:10.024Z,17.30
2022-11-05T19:04:39.894Z,14.57
2022-11-05T19:07:16.598Z,13.63
2022-11-05T19:09:46.717Z,13.83
2022-11-05T19:12:17.097Z,13.50
2022-11-05T19:14:48.585Z,14.10
2022-11-05T19:17:18.505Z,13.17
2022-11-05T19:19:48.328Z,15.07
2022-11-05T19:22:20.753Z,15.43
2022-11-05T19:24:52.738Z,13.33
2022-11-05T19:27:22.265Z,13.13
2022-11-05T19:29:53.353Z,11.40
2022-11-05T19:32:25.105Z,11.17
2022-11-05T19:34:56.080Z,11.20
2022-11-05T19:37:27.142Z,10.30
2022-11-05T19:39:56.469Z,10.07
2022-11-05T19:42:27.772Z,9.87
2022-11-05T19:45:11.534Z,9.43
2022-11-05T19:47:49.296Z,8.70
2022-11-05T19:50:19.466Z,8.57
2022-11-05T19:52:51.984Z,8.70
2022-11-05T19:55:21.792Z,9.10
2022-11-05T19:57:53.603Z,7.90
2022-11-05T20:00:25.267Z,8.47
2022-11-05T20:02:56.017Z,9.20
2022-11-05T20:05:25.829Z,8.60
2022-11-05T20:07:55.749Z,8.87
2022-11-05T20:10:25.928Z,9.60
2022-11-05T20:12:55.701Z,9.33
2022-11-05T20:15:27.037Z,9.40
2022-11-05T20:17:56.796Z,9.43
2022-11-05T20:20:26.903Z,10.40
2022-11-05T20:22:56.760Z,10.27
2022-11-05T20:25:27.023Z,11.20
2022-11-05T20:27:59.151Z,10.73
2022-11-05T20:30:30.602Z,10.87
2022-11-05T20:33:00.523Z,11.57
2022-11-05T20:35:31.341Z,11.33
2022-11-05T20:38:00.968Z,12.47
2022-11-05T20:40:30.759Z,13.57
2022-11-05T20:43:00.656Z,12.70
2022-11-05T20:45:31.863Z,13.80
2022-11-05T20:48:02.607Z,14.50
2022-11-05T20:50:33.111Z,14.47
2022-11-05T20:53:07.858Z,14.27
2022-11-05T20:55:42.842Z,15.60
2022-11-05T20:58:13.346Z,15.70
2022-11-05T21:00:51.147Z,16.03
2022-11-05T21:03:22.233Z,15.63
2022-11-05T21:05:55.013Z,16.20
2022-11-05T21:08:25.082Z,16.53
2022-11-05T21:10:54.828Z,16.03
2022-11-05T21:13:25.674Z,15.97
2022-11-05T21:15:58.487Z,17.00
2022-11-05T21:18:30.814Z,14.83
2022-11-05T21:21:01.705Z,16.20
2022-11-05T21:23:31.610Z,15.27
2022-11-05T21:26:04.417Z,15.90
2022-11-05T21:28:33.940Z,15.03
2022-11-05T21:31:05.649Z,15.60
2022-11-05T21:33:35.444Z,15.03
2022-11-05T21:36:08.710Z,14.83
2022-11-05T21:38:38.189Z,14.90
2022-11-05T21:41:08.833Z,14.27
2022-11-05T21:43:41.938Z,14.73
2022-11-05T21:46:15.360Z,15.40
2022-11-05T21:48:53.019Z,15.33
2022-11-05T21:51:41.478Z,15.30
2022-11-05T21:54:29.984Z,15.30
2022-11-05T21:57:16.815Z,15.67
2022-11-05T21:59:53.201Z,15.23
2022-11-05T22:02:25.530Z,16.57
2022-11-05T22:04:56.613Z,16.37
2022-11-05T22:07:28.394Z,15.93
2022-11-05T22:09:57.873Z,14.87
2022-11-05T22:12:27.653Z,14.90
2022-11-05T22:14:57.472Z,14.63
2022-11-05T22:17:28.249Z,14.50
2022-11-05T22:19:57.894Z,14.77
2022-11-05T22:22:27.163Z,13.53
2022-11-05T22:24:56.571Z,14.50
2022-11-05T22:27:25.758Z,14.10
2022-11-05T22:29:54.905Z,14.70
2022-11-05T22:32:24.023Z,14.60
2022-11-05T22:34:54.617Z,13.07
2022-11-05T22:37:24.175Z,13.63
2022-11-05T22:39:55.940Z,13.13
2022-11-05T22:42:25.050Z,14.17
2022-11-05T22:44:54.186Z,13.63
2022-11-05T22:47:23.292Z,13.33
2022-11-05T22:49:53.972Z,12.70
2022-11-05T22:52:23.270Z,13.27
2022-11-05T22:54:52.644Z,13.63
2022-11-05T22:57:21.875Z,13.53
2022-11-05T22:59:50.900Z,13.90
2022-11-05T23:02:20.118Z,13.70
2022-11-05T23:04:50.465Z,13.40
2022-11-05T23:07:38.320Z,12.73
2022-11-05T23:10:26.051Z,13.10
2022-11-05T23:12:56.972Z,12.20
2022-11-05T23:15:43.364Z,12.70
2022-11-05T23:18:32.923Z,12.80
2022-11-05T23:21:23.031Z,11.80
2022-11-05T23:24:06.202Z,11.37
2022-11-05T23:26:52.314Z,12.37
2022-11-05T23:29:23.603Z,12.03
2022-11-05T23:32:10.720Z,12.70
2022-11-05T23:34:40.190Z,13.00
2022-11-05T23:37:27.308Z,13.17
2022-11-05T23:39:58.246Z,11.80
2022-11-05T23:42:44.767Z,12.13
2022-11-05T23:45:31.358Z,12.33
2022-11-05T23:48:19.246Z,12.70
2022-11-05T23:50:52.443Z,12.07
2022-11-05T23:53:21.875Z,12.17
2022-11-05T23:55:52.842Z,12.13
2022-11-05T23:58:22.057Z,11.87
